createdAt,value
2023-02-12T00:01:31.942Z,19.50
2023-02-12T00:03:59.407Z,20.93
2023-02-12T00:06:28.402Z,20.20
2023-02-12T00:08:56.431Z,20.70
2023-02-12T00:11:25.023Z,19.80
2023-02-12T00:13:52.612Z,20.00
2023-02-12T00:16:21.283Z,19.43
2023-02-12T00:18:48.947Z,20.60
2023-02-12T00:21:17.326Z,20.20
2023-02-12T00:23:46.087Z,21.37
2023-02-12T00:26:14.913Z,20.87
2023-02-12T00:28:42.439Z,20.27
2023-02-12T00:31:10.851Z,20.30
2023-02-12T00:33:38.359Z,20.17
2023-02-12T00:36:06.312Z,20.40
2023-02-12T00:38:33.958Z,20.40
2023-02-12T00:41:02.947Z,22.20
2023-02-12T00:43:30.522Z,21.53
2023-02-12T00:45:58.716Z,20.73
2023-02-12T00:48:26.493Z,20.10
2023-02-12T00:50:54.034Z,20.70
2023-02-12T00:53:21.513Z,20.47
2023-02-12T00:55:49.028Z,21.60
2023-02-12T00:58:19.011Z,20.73
2023-02-12T01:00:46.629Z,21.90
2023-02-12T01:03:13.997Z,20.47
2023-02-12T01:05:41.507Z,21.10
2023-02-12T01:08:08.950Z,20.90
2023-02-12T01:10:36.444Z,21.03
2023-02-12T01:13:03.852Z,20.13
2023-02-12T01:15:32.887Z,22.73
2023-02-12T01:18:00.402Z,20.30
2023-02-12T01:20:29.124Z,21.27
2023-02-12T01:22:56.667Z,20.43
2023-02-12T01:25:24.280Z,21.20
2023-02-12T01:27:54.058Z,20.20
2023-02-12T01:30:23.097Z,20.90
2023-02-12T01:32:52.216Z,21.33
2023-02-12T01:35:19.834Z,21.30
2023-02-12T01:37:47.450Z,20.20
2023-02-12T01:40:16.188Z,20.50
2023-02-12T01:42:43.602Z,21.10
2023-02-12T01:45:41.068Z,22.00
2023-02-12T01:48:09.875Z,20.70
2023-02-12T01:50:37.356Z,20.20
2023-02-12T01:53:04.825Z,21.83
2023-02-12T01:55:32.496Z,22.07
2023-02-12T01:57:59.889Z,19.90
2023-02-12T02:00:27.457Z,20.80
2023-02-12T02:02:56.154Z,22.30
2023-02-12T02:05:28.975Z,21.60
2023-02-12T02:07:56.437Z,21.97
2023-02-12T02:10:23.948Z,22.63
2023-02-12T02:13:08.910Z,21.60
2023-02-12T02:15:37.728Z,21.17
2023-02-12T02:18:09.289Z,20.77
2023-02-12T02:21:03.860Z,22.07
2023-02-12T02:23:40.470Z,21.10
2023-02-12T02:26:31.970Z,20.63
2023-02-12T02:29:04.192Z,20.77
2023-02-12T02:31:37.087Z,20.93
2023-02-12T02:34:05.812Z,21.70
2023-02-12T02:36:36.109Z,21.37
2023-02-12T02:39:05.855Z,20.87
2023-02-12T02:41:36.142Z,20.40
2023-02-12T02:44:05.376Z,21.03
2023-02-12T02:46:36.512Z,20.70
2023-02-12T02:49:05.944Z,20.60
2023-02-12T02:51:35.487Z,19.30
2023-02-12T02:54:06.413Z,20.00
2023-02-12T02:56:36.284Z,18.80
2023-02-12T02:59:06.253Z,20.23
2023-02-12T03:01:37.750Z,20.50
2023-02-12T03:04:07.053Z,18.83
2023-02-12T03:06:38.766Z,20.80
2023-02-12T03:09:10.707Z,19.87
2023-02-12T03:11:38.154Z,20.70
2023-02-12T03:14:08.202Z,20.27
2023-02-12T03:16:40.687Z,19.90
2023-02-12T03:19:11.875Z,19.87
2023-02-12T03:21:44.812Z,20.13
2023-02-12T03:24:14.410Z,20.67
2023-02-12T03:26:45.244Z,19.50
2023-02-12T03:29:13.176Z,18.43
2023-02-12T03:31:47.619Z,19.93
2023-02-12T03:34:18.760Z,18.77
2023-02-12T03:36:47.836Z,19.37
2023-02-12T03:39:20.978Z,18.70
2023-02-12T03:41:50.647Z,18.53
2023-02-12T03:44:22.556Z,20.17
2023-02-12T03:47:01.082Z,18.77
2023-02-12T03:49:29.996Z,18.67
2023-02-12T03:51:58.434Z,19.13
2023-02-12T03:54:26.005Z,19.27
2023-02-12T03:56:55.790Z,20.70
2023-02-12T03:59:24.271Z,19.50
2023-02-12T04:01:55.618Z,20.50
2023-02-12T04:04:24.052Z,20.17
2023-02-12T04:06:52.014Z,19.70
2023-02-12T04:09:19.895Z,19.30
2023-02-12T04:11:51.556Z,20.57
2023-02-12T04:14:23.618Z,19.03
2023-02-12T04:16:53.116Z,20.30
2023-02-12T04:19:27.273Z,20.13
2023-02-12T04:21:59.123Z,18.80
2023-02-12T04:24:29.932Z,19.30
2023-02-12T04:27:00.249Z,20.40
2023-02-12T04:29:30.057Z,19.53
2023-02-12T04:31:59.419Z,19.80
2023-02-12T04:34:33.118Z,19.67
2023-02-12T04:37:03.780Z,19.40
2023-02-12T04:39:32.544Z,20.13
2023-02-12T04:42:00.557Z,20.53
2023-02-12T04:44:29.697Z,20.03
2023-02-12T04:46:57.439Z,19.50
2023-02-12T04:49:25.798Z,20.73
2023-02-12T04:51:54.633Z,19.90
2023-02-12T04:54:22.908Z,20.30
2023-02-12T04:56:50.771Z,19.67
2023-02-12T04:59:18.681Z,20.30
2023-02-12T05:01:46.560Z,20.40
2023-02-12T05:04:15.723Z,22.20
2023-02-12T05:06:43.885Z,19.80
2023-02-12T05:09:14.295Z,20.50
2023-02-12T05:11:41.985Z,20.70
2023-02-12T05:14:09.404Z,19.77
2023-02-12T05:16:36.967Z,21.03
2023-02-12T05:19:04.549Z,20.73
2023-02-12T05:21:31.963Z,20.97
2023-02-12T05:23:59.437Z,19.83
2023-02-12T05:26:28.223Z,21.00
2023-02-12T05:28:55.744Z,20.30
2023-02-12T05:31:23.356Z,21.30
2023-02-12T05:33:51.450Z,21.20
2023-02-12T05:36:19.898Z,20.27
2023-02-12T05:38:47.301Z,20.50
2023-02-12T05:41:16.470Z,20.80
2023-02-12T05:43:47.808Z,20.43
2023-02-12T05:46:17.192Z,20.17
2023-02-12T05:48:44.628Z,20.63
2023-02-12T05:51:12.885Z,20.70
2023-02-12T05:53:40.871Z,21.53
2023-02-12T05:56:12.509Z,21.20
2023-02-12T05:58:40.172Z,22.03
2023-02-12T06:01:12.345Z,21.33
2023-02-12T06:03:39.881Z,20.30
2023-02-12T06:06:07.743Z,21.50
2023-02-12T06:08:35.236Z,21.57
2023-02-12T06:11:03.484Z,21.67
2023-02-12T06:13:31.003Z,23.13
2023-02-12T06:15:59.107Z,22.80
2023-02-12T06:18:28.216Z,21.67
2023-02-12T06:20:55.663Z,21.83
2023-02-12T06:23:23.199Z,21.00
2023-02-12T06:25:51.130Z,22.50
2023-02-12T06:28:18.627Z,20.97
2023-02-12T06:30:46.103Z,20.33
2023-02-12T06:33:13.536Z,21.00
2023-02-12T06:35:42.363Z,21.90
2023-02-12T06:38:09.893Z,21.40
2023-02-12T06:40:37.374Z,22.10
2023-02-12T06:43:04.754Z,20.83
2023-02-12T06:45:32.205Z,21.50
2023-02-12T06:47:59.648Z,21.03
2023-02-12T06:50:27.235Z,20.80
2023-02-12T06:52:56.029Z,20.83
2023-02-12T06:55:23.549Z,21.30
2023-02-12T06:57:51.008Z,21.57
2023-02-12T07:00:19.145Z,20.53
2023-02-12T07:02:46.542Z,21.17
2023-02-12T07:05:14.037Z,21.10
2023-02-12T07:07:41.516Z,22.07
2023-02-12T07:10:11.157Z,21.90
2023-02-12T07:12:38.575Z,21.47
2023-02-12T07:15:06.283Z,21.93
2023-02-12T07:17:33.749Z,22.27
2023-02-12T07:20:01.123Z,21.87
2023-02-12T07:22:28.521Z,21.37
2023-02-12T07:24:55.980Z,23.40
2023-02-12T07:27:24.878Z,21.67
2023-02-12T07:29:52.404Z,22.87
2023-02-12T07:32:19.797Z,22.10
2023-02-12T07:34:47.878Z,23.03
2023-02-12T07:37:15.317Z,25.20
2023-02-12T07:39:42.720Z,24.67
2023-02-12T07:42:10.358Z,24.20
2023-02-12T07:44:39.176Z,23.60
2023-02-12T07:47:06.683Z,25.20
2023-02-12T07:49:34.173Z,23.30
2023-02-12T07:52:01.612Z,24.60
2023-02-12T07:54:29.080Z,24.10
2023-02-12T07:56:56.482Z,25.20
2023-02-12T07:59:23.929Z,24.03
2023-02-12T08:01:53.715Z,24.73
2023-02-12T08:04:22.897Z,24.13
2023-02-12T08:06:51.747Z,25.80
2023-02-12T08:09:20.456Z,26.57
2023-02-12T08:11:47.954Z,26.87
2023-02-12T08:14:15.956Z,27.23
2023-02-12T08:16:43.944Z,26.97
2023-02-12T08:19:20.946Z,25.93
2023-02-12T08:21:50.297Z,25.67
2023-02-12T08:24:17.797Z,27.33
2023-02-12T08:26:45.504Z,26.87
2023-02-12T08:29:13.717Z,26.80
2023-02-12T08:31:42.414Z,26.90
2023-02-12T08:34:16.709Z,26.87
2023-02-12T08:36:44.316Z,27.20
2023-02-12T08:39:11.804Z,29.50
2023-02-12T08:41:39.343Z,26.90
2023-02-12T08:44:07.144Z,27.83
2023-02-12T08:46:35.690Z,27.53
2023-02-12T08:49:04.466Z,28.70
2023-02-12T08:51:34.905Z,28.27
2023-02-12T08:54:03.350Z,29.27
2023-02-12T08:56:31.656Z,30.00
2023-02-12T08:58:59.676Z,28.97
2023-02-12T09:01:27.869Z,33.37
2023-02-12T09:03:55.617Z,32.80
2023-02-12T09:06:23.729Z,28.37
2023-02-12T09:08:52.901Z,29.17
2023-02-12T09:11:24.121Z,30.63
2023-02-12T09:13:51.661Z,29.70
2023-02-12T09:16:19.109Z,30.07
2023-02-12T09:18:46.740Z,31.40
2023-02-12T09:21:16.660Z,29.00
2023-02-12T09:23:44.295Z,30.43
2023-02-12T09:26:15.172Z,30.10
2023-02-12T09:28:43.316Z,31.87
2023-02-12T09:31:11.691Z,31.73
2023-02-12T09:33:39.560Z,31.80
2023-02-12T09:36:08.780Z,29.90
2023-02-12T09:38:36.342Z,30.00
2023-02-12T09:41:14.389Z,29.73
2023-02-12T09:43:45.210Z,30.97
2023-02-12T09:46:17.445Z,29.43
2023-02-12T09:48:51.267Z,30.87
2023-02-12T09:51:18.852Z,29.60
2023-02-12T09:53:47.611Z,30.23
2023-02-12T09:56:18.735Z,28.20
2023-02-12T09:58:50.847Z,28.67
2023-02-12T10:01:19.595Z,28.50
2023-02-12T10:03:48.278Z,28.70
2023-02-12T10:06:17.376Z,26.83
2023-02-12T10:08:51.397Z,25.90
2023-02-12T10:11:24.201Z,24.20
2023-02-12T10:13:55.933Z,26.20
2023-02-12T10:16:31.497Z,24.27
2023-02-12T10:19:05.910Z,25.60
2023-02-12T10:21:40.771Z,24.27
2023-02-12T10:24:17.952Z,24.27
2023-02-12T10:26:49.111Z,24.53
2023-02-12T10:29:19.989Z,23.43
2023-02-12T10:31:50.103Z,25.30
2023-02-12T10:34:19.743Z,26.77
2023-02-12T10:36:48.177Z,25.50
2023-02-12T10:39:20.777Z,25.00
2023-02-12T10:41:50.476Z,23.57
2023-02-12T10:44:19.330Z,22.93
2023-02-12T10:46:46.823Z,23.23
2023-02-12T10:49:15.934Z,23.90
2023-02-12T10:51:49.763Z,24.83
2023-02-12T10:54:34.946Z,23.10
2023-02-12T10:57:07.258Z,24.80
2023-02-12T10:59:36.145Z,23.20
2023-02-12T11:02:03.722Z,21.57
2023-02-12T11:04:33.326Z,22.70
2023-02-12T11:07:02.258Z,21.47
2023-02-12T11:09:30.801Z,20.70
2023-02-12T11:11:59.064Z,21.27
2023-02-12T11:14:26.742Z,20.30
2023-02-12T11:16:56.783Z,21.50
2023-02-12T11:19:25.165Z,20.67
2023-02-12T11:21:53.220Z,21.43
2023-02-12T11:24:29.706Z,20.40
2023-02-12T11:27:13.894Z,19.63
2023-02-12T11:29:41.580Z,20.07
2023-02-12T11:32:16.197Z,20.73
2023-02-12T11:34:43.582Z,21.70
2023-02-12T11:37:15.893Z,20.20
2023-02-12T11:39:47.301Z,19.87
2023-02-12T11:42:17.433Z,20.90
2023-02-12T11:44:49.118Z,20.33
2023-02-12T11:47:22.146Z,20.03
2023-02-12T11:49:50.988Z,20.60
2023-02-12T11:52:21.580Z,19.10
2023-02-12T11:54:49.846Z,20.07
2023-02-12T11:57:35.785Z,20.33
2023-02-12T12:00:04.990Z,19.40
2023-02-12T12:02:38.082Z,19.37
2023-02-12T12:05:08.436Z,15.90
2023-02-12T12:07:37.867Z,16.73
2023-02-12T12:10:08.494Z,17.77
2023-02-12T12:12:40.050Z,17.20
2023-02-12T12:15:29.355Z,16.67
2023-02-12T12:18:18.919Z,16.60
2023-02-12T12:20:50.333Z,16.90
2023-02-12T12:23:19.637Z,16.50
2023-02-12T12:25:48.922Z,17.53
2023-02-12T12:28:29.006Z,17.20
2023-02-12T12:31:05.454Z,15.50
2023-02-12T12:33:38.177Z,15.77
2023-02-12T12:36:13.746Z,15.73
2023-02-12T12:38:46.725Z,15.30
2023-02-12T12:41:20.201Z,15.97
2023-02-12T12:43:53.007Z,16.57
2023-02-12T12:46:29.077Z,16.77
2023-02-12T12:49:05.565Z,16.00
2023-02-12T12:51:43.442Z,15.00
2023-02-12T12:54:17.949Z,15.27
2023-02-12T12:56:48.679Z,15.17
2023-02-12T12:59:27.994Z,15.00
2023-02-12T13:02:00.272Z,13.83
2023-02-12T13:04:38.440Z,15.13
2023-02-12T13:07:20.698Z,15.13
2023-02-12T13:09:54.666Z,15.47
2023-02-12T13:12:33.845Z,15.43
2023-02-12T13:15:04.746Z,15.27
2023-02-12T13:17:34.986Z,14.43
2023-02-12T13:20:07.948Z,15.47
2023-02-12T13:22:38.435Z,15.50
2023-02-12T13:25:09.069Z,15.90
2023-02-12T13:27:40.404Z,14.90
2023-02-12T13:30:16.555Z,12.90
2023-02-12T13:32:46.565Z,13.43
2023-02-12T13:35:19.473Z,14.57
2023-02-12T13:37:49.607Z,13.47
2023-02-12T13:40:18.036Z,13.73
2023-02-12T13:42:49.021Z,13.67
2023-02-12T13:45:21.002Z,14.83
2023-02-12T13:47:53.444Z,14.97
2023-02-12T13:50:31.171Z,14.43
2023-02-12T13:53:00.409Z,13.10
2023-02-12T13:55:31.161Z,12.73
2023-02-12T13:58:17.401Z,12.97
2023-02-12T14:01:02.810Z,11.90
2023-02-12T14:03:31.024Z,12.50
2023-02-12T14:06:11.122Z,13.20
2023-02-12T14:08:39.995Z,11.33
2023-02-12T14:11:08.811Z,11.87
2023-02-12T14:13:37.766Z,11.40
2023-02-12T14:16:20.584Z,10.03
2023-02-12T14:18:48.012Z,11.30
2023-02-12T14:21:45.306Z,9.80
2023-02-12T14:24:31.498Z,6.53
2023-02-12T14:27:00.339Z,6.50
2023-02-12T14:29:27.913Z,6.10
2023-02-12T14:31:56.521Z,6.23
2023-02-12T14:34:51.785Z,5.53
2023-02-12T14:37:32.910Z,5.97
2023-02-12T14:40:18.927Z,6.00
2023-02-12T14:42:56.776Z,5.20
2023-02-12T14:45:31.340Z,4.53
2023-02-12T14:47:58.936Z,6.07
2023-02-12T14:50:29.931Z,9.23
2023-02-12T14:53:01.274Z,14.93
2023-02-12T14:55:31.216Z,9.77
2023-02-12T14:58:02.032Z,15.00
2023-02-12T15:00:32.230Z,10.13
2023-02-12T15:03:02.578Z,8.33
2023-02-12T15:05:31.439Z,6.90
2023-02-12T15:08:00.451Z,6.30
2023-02-12T15:10:31.739Z,7.07
2023-02-12T15:13:03.865Z,7.13
2023-02-12T15:15:35.320Z,7.60
2023-02-12T15:18:04.708Z,8.43
2023-02-12T15:20:36.160Z,7.20
2023-02-12T15:23:05.324Z,8.30
2023-02-12T15:25:33.986Z,10.00
2023-02-12T15:28:02.607Z,8.37
2023-02-12T15:30:31.443Z,7.70
2023-02-12T15:33:01.518Z,8.80
2023-02-12T15:35:29.696Z,7.97
2023-02-12T15:38:00.139Z,9.43
2023-02-12T15:40:27.624Z,7.97
2023-02-12T15:42:56.186Z,8.30
2023-02-12T15:45:25.224Z,12.70
2023-02-12T15:48:03.095Z,9.50
2023-02-12T15:50:31.744Z,9.20
2023-02-12T15:52:59.713Z,8.50
2023-02-12T15:55:28.725Z,7.90
2023-02-12T15:57:57.179Z,7.90
2023-02-12T16:00:28.762Z,7.80
2023-02-12T16:02:56.254Z,8.53
2023-02-12T16:05:25.591Z,10.40
2023-02-12T16:07:53.238Z,13.73
2023-02-12T16:10:21.760Z,12.90
2023-02-12T16:12:49.847Z,9.17
2023-02-12T16:15:27.723Z,9.60
2023-02-12T16:17:56.361Z,9.13
2023-02-12T16:20:27.162Z,9.17
2023-02-12T16:22:55.190Z,8.43
2023-02-12T16:25:24.333Z,8.23
2023-02-12T16:27:54.879Z,8.50
2023-02-12T16:30:30.287Z,7.93
2023-02-12T16:32:57.932Z,9.40
2023-02-12T16:35:29.237Z,9.40
2023-02-12T16:37:59.688Z,8.73
2023-02-12T16:40:29.856Z,8.77
2023-02-12T16:42:58.107Z,9.13
2023-02-12T16:45:36.372Z,8.90
2023-02-12T16:48:08.040Z,8.83
2023-02-12T16:50:39.288Z,9.87
2023-02-12T16:53:07.356Z,9.50
2023-02-12T16:55:36.603Z,9.50
2023-02-12T16:58:04.153Z,10.77
2023-02-12T17:00:31.606Z,10.47
2023-02-12T17:02:59.113Z,9.47
2023-02-12T17:05:26.544Z,9.77
2023-02-12T17:07:55.260Z,10.07
2023-02-12T17:10:22.713Z,11.13
2023-02-12T17:12:51.318Z,10.07
2023-02-12T17:15:21.271Z,9.50
2023-02-12T17:17:48.660Z,9.03
2023-02-12T17:20:17.474Z,8.30
2023-02-12T17:22:48.515Z,9.20
2023-02-12T17:25:17.384Z,8.53
2023-02-12T17:27:44.820Z,8.47
2023-02-12T17:30:15.645Z,8.00
2023-02-12T17:32:43.085Z,7.07
2023-02-12T17:35:10.944Z,7.60
2023-02-12T17:37:38.432Z,6.70
2023-02-12T17:40:06.835Z,7.33
2023-02-12T17:42:35.803Z,7.20
2023-02-12T17:45:03.231Z,7.07
2023-02-12T17:47:31.394Z,6.60
2023-02-12T17:50:00.436Z,6.83
2023-02-12T17:52:27.799Z,6.97
2023-02-12T17:54:55.177Z,7.47
2023-02-12T17:57:22.532Z,6.90
2023-02-12T17:59:51.377Z,6.83
2023-02-12T18:02:18.822Z,6.90
2023-02-12T18:04:46.301Z,7.00
2023-02-12T18:07:13.755Z,6.40
2023-02-12T18:09:41.178Z,6.33
2023-02-12T18:12:08.924Z,6.40
2023-02-12T18:14:36.374Z,6.37
2023-02-12T18:17:05.217Z,7.20
2023-02-12T18:19:32.612Z,6.40
2023-02-12T18:22:00.022Z,6.50
2023-02-12T18:24:27.539Z,6.60
2023-02-12T18:26:54.930Z,7.10
2023-02-12T18:29:22.406Z,7.67
2023-02-12T18:31:49.799Z,7.80
2023-02-12T18:34:19.833Z,7.10
2023-02-12T18:36:47.275Z,6.27
2023-02-12T18:39:14.839Z,6.70
2023-02-12T18:41:42.304Z,6.30
2023-02-12T18:44:09.677Z,6.60
2023-02-12T18:46:37.444Z,7.30
2023-02-12T18:49:05.292Z,6.33
2023-02-12T18:51:36.641Z,6.40
2023-02-12T18:54:07.309Z,7.07
2023-02-12T18:56:35.923Z,6.30
2023-02-12T18:59:04.743Z,7.47
2023-02-12T19:01:32.742Z,8.30
2023-02-12T19:04:01.008Z,7.73
2023-02-12T19:06:28.567Z,7.30
2023-02-12T19:08:58.597Z,7.00
2023-02-12T19:11:26.399Z,6.40
2023-02-12T19:13:53.898Z,6.70
2023-02-12T19:16:23.406Z,6.47
2023-02-12T19:18:51.299Z,6.73
2023-02-12T19:21:19.710Z,6.80
2023-02-12T19:23:47.135Z,6.40
2023-02-12T19:26:16.861Z,6.70
2023-02-12T19:28:44.840Z,6.50
2023-02-12T19:31:14.935Z,6.83
2023-02-12T19:33:43.130Z,7.10
2023-02-12T19:36:12.204Z,6.00
2023-02-12T19:38:39.849Z,6.20
2023-02-12T19:41:08.160Z,6.47
2023-02-12T19:43:36.985Z,7.20
2023-02-12T19:46:05.035Z,6.23
2023-02-12T19:48:32.533Z,6.27
2023-02-12T19:50:59.968Z,7.57
2023-02-12T19:53:27.542Z,6.90
2023-02-12T19:55:55.004Z,7.07
2023-02-12T19:58:22.704Z,6.90
2023-02-12T20:00:51.551Z,7.80
2023-02-12T20:03:19.980Z,8.13
2023-02-12T20:05:52.082Z,7.50
2023-02-12T20:08:19.604Z,8.40
2023-02-12T20:10:47.406Z,8.17
2023-02-12T20:13:14.809Z,8.97
2023-02-12T20:15:42.416Z,8.83
2023-02-12T20:18:11.736Z,8.70
2023-02-12T20:20:40.287Z,9.33
2023-02-12T20:23:07.763Z,9.20
2023-02-12T20:25:35.153Z,8.67
2023-02-12T20:28:02.629Z,10.40
2023-02-12T20:30:30.137Z,9.13
2023-02-12T20:32:57.551Z,10.00
2023-02-12T20:35:26.320Z,10.13
2023-02-12T20:37:53.709Z,9.23
2023-02-12T20:40:21.368Z,11.50
2023-02-12T20:42:48.823Z,9.80
2023-02-12T20:45:16.464Z,9.77
2023-02-12T20:47:43.850Z,8.63
2023-02-12T20:50:11.547Z,9.20
2023-02-12T20:52:41.549Z,8.40
2023-02-12T20:55:09.208Z,8.40
2023-02-12T20:57:36.670Z,8.93
2023-02-12T21:00:05.267Z,8.23
2023-02-12T21:02:32.673Z,8.10
2023-02-12T21:05:00.676Z,7.70
2023-02-12T21:07:28.402Z,7.27
2023-02-12T21:09:57.225Z,7.77
2023-02-12T21:12:24.716Z,6.53
2023-02-12T21:14:52.088Z,6.83
2023-02-12T21:17:20.421Z,7.43
2023-02-12T21:19:47.884Z,6.90
2023-02-12T21:22:15.364Z,7.00
2023-02-12T21:24:42.817Z,6.87
2023-02-12T21:27:12.108Z,7.50
2023-02-12T21:29:39.611Z,7.50
2023-02-12T21:32:07.246Z,7.00
2023-02-12T21:34:34.802Z,6.93
2023-02-12T21:37:02.261Z,7.43
2023-02-12T21:39:29.633Z,7.40
2023-02-12T21:41:58.165Z,6.57
2023-02-12T21:44:27.449Z,6.77
2023-02-12T21:46:55.271Z,6.93
2023-02-12T21:49:27.740Z,6.87
2023-02-12T21:51:56.661Z,6.87
2023-02-12T21:54:24.174Z,7.30
2023-02-12T21:56:51.741Z,6.83
2023-02-12T21:59:19.577Z,7.00
2023-02-12T22:01:49.775Z,7.27
2023-02-12T22:04:18.102Z,6.60
2023-02-12T22:06:46.843Z,7.43
2023-02-12T22:09:15.372Z,7.27
2023-02-12T22:11:43.379Z,7.87
2023-02-12T22:14:13.023Z,7.50
2023-02-12T22:16:40.535Z,7.80
2023-02-12T22:19:09.696Z,7.80
2023-02-12T22:21:37.707Z,7.77
2023-02-12T22:24:06.450Z,7.20
2023-02-12T22:26:34.358Z,7.13
2023-02-12T22:29:03.020Z,7.27
2023-02-12T22:31:31.403Z,7.80
2023-02-12T22:33:59.873Z,6.87
2023-02-12T22:36:29.095Z,7.50
2023-02-12T22:38:57.851Z,7.80
2023-02-12T22:41:25.680Z,7.20
2023-02-12T22:43:53.140Z,8.00
2023-02-12T22:46:20.629Z,8.67
2023-02-12T22:48:48.042Z,7.90
2023-02-12T22:51:18.727Z,8.30
2023-02-12T22:53:48.005Z,8.10
2023-02-12T22:56:15.902Z,7.00
2023-02-12T22:58:43.948Z,7.60
2023-02-12T23:01:12.556Z,7.40
2023-02-12T23:03:40.169Z,7.70
2023-02-12T23:06:09.383Z,7.33
2023-02-12T23:08:36.854Z,7.60
2023-02-12T23:11:07.200Z,7.57
2023-02-12T23:13:36.662Z,7.97
2023-02-12T23:16:04.801Z,7.93
2023-02-12T23:18:32.931Z,6.97
2023-02-12T23:21:00.882Z,8.17
2023-02-12T23:23:28.693Z,8.03
2023-02-12T23:25:56.871Z,8.17
2023-02-12T23:28:25.858Z,8.53
2023-02-12T23:30:53.827Z,8.40
2023-02-12T23:33:21.388Z,8.70
2023-02-12T23:35:49.171Z,8.87
2023-02-12T23:38:16.825Z,7.83
2023-02-12T23:40:44.420Z,8.50
2023-02-12T23:43:12.088Z,7.73
2023-02-12T23:45:40.876Z,7.53
2023-02-12T23:48:08.473Z,7.80
2023-02-12T23:50:35.930Z,8.07
2023-02-12T23:53:03.339Z,8.30
2023-02-12T23:55:30.746Z,8.13
2023-02-12T23:57:58.211Z,9.00
